Portada
METAR-TAF:

METAR-TAF

Aeroports :

Oostende, Bèlgica

latitud: 51-12N, longitud: 002-52E, altitud: 4 m

Observació

L'informe es va fer fa 39 minuts, a les 23:20 UTC
Vent 11 kt del Nord
Temperatura 6°C
Humitat 70%
Pressió 1033 hPa
Visibilitat 10 km o més
Escasses núvols a una alçada de 2600 ft

METAR: EBOS 182320Z 35011KT 9999 FEW026 06/01 Q1033 NOSIG

Hora: 00:59 (23:59 UTC)

Pronòstic

L'informe es va fer fa 49 minuts, a les 23:10 UTC
Pronòstic vàlid del 19 a les 00 UTC al 20 a les 06 UTC
Vent 12 kt del Nord/Nord-Oest
Visibilitat 10 km o més
Escasses núvols a una alçada de 2500 ft
Probabilitat 40% :
Temporalment
l' 19 a les 00 UTC al 19 a les 10 UTC
Vent 16 kt del Nord amb ràfegues de 26 kt
Visibilitat: 4000 m
Núvols disperses a una alçada de 800 ft
Cel ennuvolat a una alçada de 1200 ft, Cumulus congestus.
xàfecs de pluja

TAF: EBOS 182310Z 1900/2006 34012KT 9999 FEW025 PROB40 TEMPO 1900/1910 36016G26KT 4000 SHRA SCT008 BKN012TCU

Observacions i pronòstics meteorològics de més de 4000 aeroports (METAR i TAF).

Les estacions disponibles són els punts grocs i vermells al mapa.

Posi el ratolí al punt desitjat per veure el nom de l'estació.

Feu clic per veure les observacions i els pronòstics meteorològics.

Per canviar el mapa: feu clic els botons verds amb una creu de color negre per apropar; al botó verd amb un guió per allunyar la imatge; o en les fletxes verdes per a mapes adjacents.


METAR-TAF: